createdAt,value
2018-05-05T00:00:45.676Z,0.00
2018-05-05T00:01:45.827Z,0.00
2018-05-05T00:02:45.981Z,0.00
2018-05-05T00:03:46.128Z,0.00
2018-05-05T00:04:46.276Z,0.00
2018-05-05T00:05:46.427Z,0.00
2018-05-05T00:06:46.580Z,0.00
2018-05-05T00:07:46.729Z,0.00
2018-05-05T00:08:46.880Z,0.00
2018-05-05T00:09:47.031Z,0.00
2018-05-05T00:10:47.184Z,0.00
2018-05-05T00:11:47.332Z,0.00
2018-05-05T00:12:47.480Z,0.00
2018-05-05T00:13:47.632Z,0.00
2018-05-05T00:14:47.782Z,0.00
2018-05-05T00:15:47.933Z,0.00
2018-05-05T00:16:48.082Z,0.00
2018-05-05T00:17:48.231Z,0.00
2018-05-05T00:18:48.381Z,0.00
2018-05-05T00:19:48.531Z,0.00
2018-05-05T00:20:48.680Z,0.00
2018-05-05T00:21:48.831Z,0.00
2018-05-05T00:22:48.987Z,0.00
2018-05-05T00:23:49.133Z,0.00
2018-05-05T00:24:49.283Z,0.00
2018-05-05T00:25:49.433Z,0.00
2018-05-05T00:26:49.592Z,0.00
2018-05-05T00:27:49.736Z,0.00
2018-05-05T00:28:49.885Z,0.00
2018-05-05T00:29:50.033Z,0.00
2018-05-05T00:30:50.183Z,0.00
2018-05-05T00:31:50.335Z,0.00
2018-05-05T00:32:50.485Z,0.00
2018-05-05T00:33:50.637Z,0.00
2018-05-05T00:34:50.785Z,0.00
2018-05-05T00:35:50.935Z,0.00
2018-05-05T00:36:51.085Z,0.00
2018-05-05T00:37:51.270Z,0.00
2018-05-05T00:38:51.419Z,0.00
2018-05-05T00:39:51.568Z,0.00
2018-05-05T00:40:51.721Z,0.00
2018-05-05T00:41:51.869Z,0.00
2018-05-05T00:42:52.018Z,0.00
2018-05-05T00:43:52.168Z,0.00
2018-05-05T00:44:52.320Z,0.00
2018-05-05T00:45:52.472Z,0.00
2018-05-05T00:46:52.620Z,0.00
2018-05-05T00:47:52.770Z,0.00
2018-05-05T00:48:52.924Z,0.00
2018-05-05T00:49:53.071Z,0.00
2018-05-05T00:50:53.221Z,0.00
2018-05-05T00:51:53.367Z,0.00
2018-05-05T00:52:53.519Z,0.00
2018-05-05T00:53:53.669Z,0.00
2018-05-05T00:54:53.820Z,0.00
2018-05-05T00:55:53.969Z,0.00
2018-05-05T00:56:54.120Z,0.00
2018-05-05T00:57:54.270Z,0.00
2018-05-05T00:58:54.421Z,0.00
2018-05-05T00:59:54.571Z,0.00
2018-05-05T01:00:54.719Z,0.00
2018-05-05T01:01:54.871Z,0.00
2018-05-05T01:02:55.020Z,0.00
2018-05-05T01:03:55.173Z,0.00
2018-05-05T01:04:55.323Z,0.00
2018-05-05T01:05:55.470Z,0.00
2018-05-05T01:06:55.622Z,0.00
2018-05-05T01:07:55.771Z,0.00
2018-05-05T01:08:55.923Z,0.00
2018-05-05T01:09:56.074Z,0.00
2018-05-05T01:10:56.223Z,0.00
2018-05-05T01:11:56.375Z,0.00
2018-05-05T01:12:56.592Z,0.00
2018-05-05T01:13:56.699Z,0.00
2018-05-05T01:14:56.928Z,0.00
2018-05-05T01:15:56.999Z,0.00
2018-05-05T01:16:57.147Z,0.00
2018-05-05T01:17:57.298Z,0.00
2018-05-05T01:18:57.449Z,0.00
2018-05-05T01:19:57.597Z,0.00
2018-05-05T01:20:57.747Z,0.00
2018-05-05T01:21:57.897Z,0.00
2018-05-05T01:22:58.049Z,0.00
2018-05-05T01:23:58.198Z,0.00
2018-05-05T01:24:58.347Z,0.00
2018-05-05T01:25:58.498Z,0.00
2018-05-05T01:26:58.647Z,0.00
2018-05-05T01:27:58.795Z,0.00
2018-05-05T01:28:58.945Z,0.00
2018-05-05T01:29:59.096Z,0.00
2018-05-05T01:30:59.245Z,0.00
2018-05-05T01:31:59.395Z,0.00
2018-05-05T01:32:59.544Z,0.00
2018-05-05T01:33:59.699Z,0.00
2018-05-05T01:34:59.844Z,0.00
2018-05-05T01:35:59.992Z,0.00
2018-05-05T01:37:00.143Z,0.00
2018-05-05T01:38:00.294Z,0.00
2018-05-05T01:39:00.443Z,0.00
2018-05-05T01:40:00.597Z,0.00
2018-05-05T01:41:00.744Z,0.00
2018-05-05T01:42:00.891Z,0.00
2018-05-05T01:43:01.041Z,0.00
2018-05-05T01:44:01.191Z,0.00
2018-05-05T01:45:01.338Z,0.00
2018-05-05T01:46:01.489Z,0.00
2018-05-05T01:47:01.639Z,0.00
2018-05-05T01:48:01.791Z,0.00
2018-05-05T01:49:01.943Z,0.00
2018-05-05T01:50:02.091Z,0.00
2018-05-05T01:51:02.244Z,0.00
2018-05-05T01:52:02.393Z,0.00
2018-05-05T01:53:02.542Z,0.00
2018-05-05T01:54:02.689Z,0.00
2018-05-05T01:55:02.839Z,0.00
2018-05-05T01:56:03.006Z,0.00
2018-05-05T01:57:03.136Z,0.00
2018-05-05T01:58:03.287Z,0.00
2018-05-05T01:59:03.441Z,0.00
2018-05-05T02:00:03.591Z,0.00
2018-05-05T02:01:03.742Z,0.00
2018-05-05T02:02:03.891Z,0.00
2018-05-05T02:03:04.039Z,0.00
2018-05-05T02:04:04.191Z,0.00
2018-05-05T02:05:04.340Z,0.00
2018-05-05T02:06:04.490Z,0.00
2018-05-05T02:07:04.640Z,0.00
2018-05-05T02:08:04.792Z,0.00
2018-05-05T02:09:04.942Z,0.00
2018-05-05T02:10:05.091Z,0.00
2018-05-05T02:11:05.241Z,0.00
2018-05-05T02:12:05.389Z,0.00
2018-05-05T02:13:05.537Z,0.00
2018-05-05T02:14:05.687Z,0.00
2018-05-05T02:15:05.837Z,0.00
2018-05-05T02:16:05.990Z,0.00
2018-05-05T02:17:06.137Z,0.00
2018-05-05T02:18:06.284Z,0.00
2018-05-05T02:19:06.432Z,0.00
2018-05-05T02:20:06.586Z,0.00
2018-05-05T02:21:06.732Z,0.00
2018-05-05T02:22:06.885Z,0.00
2018-05-05T02:23:07.042Z,0.00
2018-05-05T02:24:07.184Z,0.00
2018-05-05T02:25:07.336Z,0.00
2018-05-05T02:26:07.486Z,0.00
2018-05-05T02:27:07.633Z,0.00
2018-05-05T02:28:07.783Z,0.00
2018-05-05T02:29:07.934Z,0.00
2018-05-05T02:30:08.085Z,0.00
2018-05-05T02:31:08.235Z,0.00
2018-05-05T02:32:08.384Z,0.00
2018-05-05T02:33:08.534Z,0.00
2018-05-05T02:34:08.682Z,0.00
2018-05-05T02:35:08.837Z,0.00
2018-05-05T02:36:08.986Z,0.00
2018-05-05T02:37:09.133Z,0.00
2018-05-05T02:38:09.285Z,0.00
2018-05-05T02:39:09.434Z,0.00
2018-05-05T02:40:09.583Z,0.00
2018-05-05T02:41:09.736Z,0.00
2018-05-05T02:42:09.888Z,0.00
2018-05-05T02:43:10.032Z,0.00
2018-05-05T02:44:10.184Z,0.00
2018-05-05T02:45:10.333Z,0.00
2018-05-05T02:46:10.483Z,0.00
2018-05-05T02:47:10.631Z,0.00
2018-05-05T02:48:10.783Z,0.00
2018-05-05T02:49:10.934Z,0.00
2018-05-05T02:50:11.083Z,0.00
2018-05-05T02:51:11.233Z,0.00
2018-05-05T02:52:11.384Z,0.00
2018-05-05T02:53:11.533Z,0.00
2018-05-05T02:54:11.689Z,0.00
2018-05-05T02:55:11.833Z,0.00
2018-05-05T02:56:11.988Z,0.00
2018-05-05T02:57:12.131Z,0.00
2018-05-05T02:58:12.279Z,0.00
2018-05-05T02:59:12.430Z,0.00
2018-05-05T03:00:12.575Z,0.00
2018-05-05T03:01:12.725Z,0.00
2018-05-05T03:02:12.875Z,0.00
2018-05-05T03:03:13.030Z,0.00
2018-05-05T03:04:13.204Z,0.00
2018-05-05T03:05:13.358Z,0.00
2018-05-05T03:06:13.505Z,0.00
2018-05-05T03:07:13.651Z,0.00
2018-05-05T03:08:13.801Z,0.00
2018-05-05T03:09:13.951Z,0.00
2018-05-05T03:10:14.102Z,0.00
2018-05-05T03:11:14.249Z,0.00
2018-05-05T03:12:14.402Z,0.00
2018-05-05T03:13:14.551Z,0.00
2018-05-05T03:14:14.702Z,0.00
2018-05-05T03:15:14.851Z,0.00
2018-05-05T03:16:15.001Z,0.00
2018-05-05T03:17:15.149Z,0.00
2018-05-05T03:18:15.304Z,0.00
2018-05-05T03:19:15.449Z,0.00
2018-05-05T03:20:15.600Z,0.00
2018-05-05T03:21:15.749Z,0.00
2018-05-05T03:22:15.897Z,0.00
2018-05-05T03:23:16.047Z,0.00
2018-05-05T03:24:16.196Z,0.00
2018-05-05T03:25:16.347Z,0.00
2018-05-05T03:26:16.504Z,0.00
2018-05-05T03:27:16.646Z,0.00
2018-05-05T03:28:16.796Z,0.00
2018-05-05T03:29:16.947Z,0.00
2018-05-05T03:30:17.096Z,0.00
2018-05-05T03:31:17.244Z,0.00
2018-05-05T03:32:17.396Z,0.00
2018-05-05T03:33:17.544Z,0.00
2018-05-05T03:34:17.692Z,5.63
2018-05-05T03:35:17.843Z,5.63
2018-05-05T03:36:17.992Z,5.63
2018-05-05T03:37:18.143Z,5.63
2018-05-05T03:38:18.292Z,5.63
2018-05-05T03:39:18.440Z,5.63
2018-05-05T03:40:18.592Z,5.63
2018-05-05T03:41:18.741Z,11.25
2018-05-05T03:42:18.890Z,11.25
2018-05-05T03:43:19.041Z,11.25
2018-05-05T03:44:19.191Z,11.25
2018-05-05T03:45:19.340Z,11.25
2018-05-05T03:46:19.491Z,16.88
2018-05-05T03:47:19.641Z,16.88
2018-05-05T03:48:19.790Z,16.88
2018-05-05T03:49:19.943Z,16.88
2018-05-05T03:50:20.091Z,22.50
2018-05-05T03:51:20.241Z,22.50
2018-05-05T03:52:20.392Z,22.50
2018-05-05T03:53:20.543Z,28.13
2018-05-05T03:54:20.698Z,28.13
2018-05-05T03:55:20.844Z,28.13
2018-05-05T03:56:20.993Z,33.75
2018-05-05T03:57:21.200Z,33.75
2018-05-05T03:58:21.297Z,39.38
2018-05-05T03:59:21.446Z,39.38
2018-05-05T04:00:21.595Z,39.38
2018-05-05T04:01:21.745Z,45.00
2018-05-05T04:02:21.893Z,45.00
2018-05-05T04:03:22.044Z,50.63
2018-05-05T04:04:22.194Z,50.63
2018-05-05T04:05:22.345Z,50.63
2018-05-05T04:06:22.495Z,56.25
2018-05-05T04:07:22.643Z,56.25
2018-05-05T04:08:22.793Z,61.88
2018-05-05T04:09:22.946Z,61.88
2018-05-05T04:10:23.095Z,67.50
2018-05-05T04:11:23.245Z,67.50
2018-05-05T04:12:23.395Z,67.50
2018-05-05T04:13:23.550Z,73.13
2018-05-05T04:14:23.696Z,73.13
2018-05-05T04:15:23.847Z,78.75
2018-05-05T04:16:23.995Z,78.75
2018-05-05T04:17:24.160Z,84.38
2018-05-05T04:18:24.301Z,84.38
2018-05-05T04:19:24.451Z,90.00
2018-05-05T04:20:24.600Z,90.00
2018-05-05T04:21:24.755Z,95.63
2018-05-05T04:22:24.901Z,95.63
2018-05-05T04:23:25.049Z,101.25
2018-05-05T04:24:25.201Z,101.25
2018-05-05T04:25:25.348Z,106.88
2018-05-05T04:26:25.499Z,106.88
2018-05-05T04:27:25.649Z,112.50
2018-05-05T04:28:25.799Z,112.50
2018-05-05T04:29:25.949Z,118.13
2018-05-05T04:30:26.098Z,118.13
2018-05-05T04:31:26.250Z,123.75
2018-05-05T04:32:26.422Z,123.75
2018-05-05T04:33:26.552Z,129.38
2018-05-05T04:34:26.699Z,129.38
2018-05-05T04:35:26.853Z,135.00
2018-05-05T04:36:26.997Z,135.00
2018-05-05T04:37:27.147Z,140.63
2018-05-05T04:38:27.297Z,140.63
2018-05-05T04:39:27.449Z,146.25
2018-05-05T04:40:27.600Z,146.25
2018-05-05T04:41:27.750Z,151.88
2018-05-05T04:42:27.900Z,151.88
2018-05-05T04:43:28.051Z,151.88
2018-05-05T04:44:28.233Z,157.50
2018-05-05T04:45:28.349Z,157.50
2018-05-05T04:46:28.500Z,163.13
2018-05-05T04:47:28.652Z,163.13
2018-05-05T04:48:28.802Z,168.75
2018-05-05T04:49:28.959Z,168.75
2018-05-05T04:50:29.102Z,168.75
2018-05-05T04:51:29.297Z,174.38
2018-05-05T04:52:29.400Z,174.38
2018-05-05T04:53:29.552Z,180.00
2018-05-05T04:54:29.703Z,180.00
2018-05-05T04:55:29.852Z,180.00
2018-05-05T04:56:30.007Z,185.63
2018-05-05T04:57:30.152Z,185.63
2018-05-05T04:58:30.302Z,191.25
2018-05-05T04:59:30.443Z,191.25
2018-05-05T05:00:30.602Z,191.25
2018-05-05T05:01:30.751Z,196.88
2018-05-05T05:02:30.900Z,196.88
2018-05-05T05:03:31.051Z,202.50
2018-05-05T05:04:31.205Z,202.50
2018-05-05T05:05:31.354Z,202.50
2018-05-05T05:06:31.503Z,208.13
2018-05-05T05:07:31.660Z,208.13
2018-05-05T05:08:31.805Z,213.75
2018-05-05T05:09:31.954Z,213.75
2018-05-05T05:10:32.107Z,213.75
2018-05-05T05:11:32.257Z,219.38
2018-05-05T05:12:32.406Z,219.38
2018-05-05T05:13:32.555Z,225.00
2018-05-05T05:14:32.706Z,225.00
2018-05-05T05:15:32.856Z,225.00
2018-05-05T05:16:33.008Z,230.63
2018-05-05T05:17:33.158Z,230.63
2018-05-05T05:18:33.309Z,230.63
2018-05-05T05:19:33.458Z,236.25
2018-05-05T05:20:33.621Z,236.25
2018-05-05T05:21:33.760Z,236.25
2018-05-05T05:22:33.910Z,241.88
2018-05-05T05:23:34.059Z,241.88
2018-05-05T05:24:34.209Z,241.88
2018-05-05T05:25:34.360Z,247.50
2018-05-05T05:26:34.511Z,247.50
2018-05-05T05:27:34.663Z,247.50
2018-05-05T05:28:34.811Z,247.50
2018-05-05T05:29:34.967Z,253.13
2018-05-05T05:30:35.121Z,253.13
2018-05-05T05:31:35.268Z,253.13
2018-05-05T05:32:35.420Z,258.75
2018-05-05T05:33:35.569Z,258.75
2018-05-05T05:34:35.723Z,258.75
2018-05-05T05:35:35.872Z,264.38
2018-05-05T05:36:36.025Z,264.38
2018-05-05T05:37:36.176Z,264.38
2018-05-05T05:38:36.325Z,270.00
2018-05-05T05:39:36.476Z,270.00
2018-05-05T05:40:36.627Z,270.00
2018-05-05T05:41:36.776Z,270.00
2018-05-05T05:42:36.928Z,270.00
2018-05-05T05:43:37.081Z,275.63
2018-05-05T05:44:37.229Z,275.63
2018-05-05T05:45:37.379Z,275.63
2018-05-05T05:46:37.585Z,275.63
2018-05-05T05:47:37.683Z,281.25
2018-05-05T05:48:37.831Z,281.25
2018-05-05T05:49:37.981Z,281.25
2018-05-05T05:50:38.131Z,286.88
2018-05-05T05:51:38.284Z,286.88
2018-05-05T05:52:38.433Z,286.88
2018-05-05T05:53:38.582Z,286.88
2018-05-05T05:54:38.738Z,286.88
2018-05-05T05:55:38.930Z,292.50
2018-05-05T05:56:39.039Z,292.50
2018-05-05T05:57:39.188Z,292.50
2018-05-05T05:58:39.343Z,292.50
2018-05-05T05:59:39.490Z,292.50
2018-05-05T06:00:39.644Z,298.13
2018-05-05T06:01:39.794Z,298.13
2018-05-05T06:02:39.943Z,298.13
2018-05-05T06:03:40.095Z,298.13
2018-05-05T06:04:40.246Z,298.13
2018-05-05T06:05:40.397Z,298.13
2018-05-05T06:06:40.546Z,303.75
2018-05-05T06:07:40.698Z,303.75
2018-05-05T06:08:40.854Z,303.75
2018-05-05T06:09:41.005Z,303.75
2018-05-05T06:10:41.156Z,303.75
2018-05-05T06:11:41.307Z,309.38
2018-05-05T06:12:41.456Z,309.38
2018-05-05T06:13:41.609Z,309.38
2018-05-05T06:14:41.760Z,309.38
2018-05-05T06:15:41.910Z,309.38
2018-05-05T06:16:42.060Z,309.38
2018-05-05T06:17:42.215Z,315.00
2018-05-05T06:18:42.366Z,315.00
2018-05-05T06:19:42.519Z,315.00
2018-05-05T06:20:42.669Z,315.00
2018-05-05T06:21:42.826Z,315.00
2018-05-05T06:22:42.974Z,315.00
2018-05-05T06:23:43.125Z,320.63
2018-05-05T06:24:43.787Z,320.63
2018-05-05T06:25:43.414Z,320.63
2018-05-05T06:26:43.571Z,320.63
2018-05-05T06:27:43.720Z,320.63
2018-05-05T06:28:43.874Z,320.63
2018-05-05T06:29:44.028Z,326.25
2018-05-05T06:30:44.182Z,326.25
2018-05-05T06:31:44.331Z,326.25
2018-05-05T06:32:44.482Z,326.25
2018-05-05T06:33:44.630Z,326.25
2018-05-05T06:34:44.788Z,326.25
2018-05-05T06:35:44.935Z,326.25
2018-05-05T06:36:45.088Z,326.25
2018-05-05T06:37:45.239Z,326.25
2018-05-05T06:38:45.392Z,331.88
2018-05-05T06:39:45.542Z,331.88
2018-05-05T06:40:45.696Z,331.88
2018-05-05T06:41:45.849Z,331.88
2018-05-05T06:42:46.002Z,331.88
2018-05-05T06:43:46.152Z,331.88
2018-05-05T06:44:46.305Z,337.50
2018-05-05T06:45:46.456Z,337.50
2018-05-05T06:46:46.607Z,337.50
2018-05-05T06:47:46.760Z,337.50
2018-05-05T06:48:46.913Z,337.50
2018-05-05T06:49:47.069Z,337.50
2018-05-05T06:50:47.226Z,337.50
2018-05-05T06:51:47.370Z,337.50
2018-05-05T06:52:47.526Z,337.50
2018-05-05T06:53:47.680Z,343.13
2018-05-05T06:54:47.837Z,343.13
2018-05-05T06:55:47.985Z,343.13
2018-05-05T06:56:48.137Z,343.13
2018-05-05T06:57:48.288Z,343.13
2018-05-05T06:58:48.441Z,343.13
2018-05-05T06:59:48.594Z,343.13
2018-05-05T07:00:48.750Z,343.13
2018-05-05T07:01:48.905Z,348.75
2018-05-05T07:02:49.059Z,348.75
2018-05-05T07:03:49.212Z,348.75
2018-05-05T07:04:49.361Z,348.75
2018-05-05T07:05:49.514Z,348.75
2018-05-05T07:06:49.666Z,348.75
2018-05-05T07:07:49.820Z,348.75
2018-05-05T07:08:49.977Z,348.75
2018-05-05T07:09:50.128Z,348.75
2018-05-05T07:10:50.280Z,354.38
2018-05-05T07:11:50.432Z,354.38
2018-05-05T07:12:50.583Z,354.38
2018-05-05T07:13:50.737Z,354.38
2018-05-05T07:14:50.889Z,354.38
2018-05-05T07:15:51.041Z,354.38
2018-05-05T07:16:51.195Z,354.38
2018-05-05T07:17:51.348Z,354.38
2018-05-05T07:18:51.502Z,354.38
2018-05-05T07:19:51.658Z,354.38
2018-05-05T07:20:51.811Z,354.38
2018-05-05T07:21:51.966Z,354.38
2018-05-05T07:22:52.118Z,354.38
2018-05-05T07:23:52.274Z,360.00
2018-05-05T07:24:52.439Z,360.00
2018-05-05T07:25:52.582Z,360.00
2018-05-05T07:26:52.734Z,360.00
2018-05-05T07:27:52.886Z,360.00
2018-05-05T07:28:53.039Z,360.00
2018-05-05T07:29:53.193Z,360.00
2018-05-05T07:30:53.351Z,360.00
2018-05-05T07:31:53.501Z,360.00
2018-05-05T07:32:53.654Z,360.00
2018-05-05T07:33:53.811Z,360.00
2018-05-05T07:34:53.963Z,360.00
2018-05-05T07:35:54.125Z,365.63
2018-05-05T07:36:54.274Z,365.63
2018-05-05T07:37:54.427Z,360.00
2018-05-05T07:38:54.582Z,365.63
2018-05-05T07:39:54.734Z,365.63
2018-05-05T07:40:54.893Z,365.63
2018-05-05T07:41:55.047Z,365.63
2018-05-05T07:42:55.202Z,365.63
2018-05-05T07:43:55.346Z,365.63
2018-05-05T07:44:55.517Z,365.63
2018-05-05T07:45:55.656Z,365.63
2018-05-05T07:46:55.813Z,371.25
2018-05-05T07:47:55.968Z,365.63
2018-05-05T07:48:56.119Z,371.25
2018-05-05T07:49:56.360Z,371.25
2018-05-05T07:50:56.442Z,371.25
2018-05-05T07:51:56.565Z,371.25
2018-05-05T07:52:56.727Z,371.25
2018-05-05T07:53:56.867Z,371.25
2018-05-05T07:54:57.017Z,371.25
2018-05-05T07:55:57.167Z,371.25
2018-05-05T07:56:57.321Z,371.25
2018-05-05T07:57:57.475Z,371.25
2018-05-05T07:58:57.630Z,376.88
2018-05-05T07:59:57.786Z,376.88
2018-05-05T08:00:57.939Z,376.88
2018-05-05T08:01:58.092Z,376.88
2018-05-05T08:02:58.247Z,376.88
2018-05-05T08:03:58.408Z,376.88
2018-05-05T08:04:58.558Z,376.88
2018-05-05T08:05:58.713Z,376.88
2018-05-05T08:06:58.869Z,376.88
2018-05-05T08:07:59.020Z,376.88
2018-05-05T08:08:59.178Z,376.88
2018-05-05T08:09:59.331Z,376.88
2018-05-05T08:10:59.486Z,382.50
2018-05-05T08:11:59.643Z,382.50
2018-05-05T08:12:59.796Z,382.50
2018-05-05T08:13:59.955Z,382.50
2018-05-05T08:15:00.112Z,382.50
2018-05-05T08:16:00.265Z,382.50
2018-05-05T08:17:00.429Z,382.50
2018-05-05T08:18:00.580Z,382.50
2018-05-05T08:19:00.733Z,382.50
2018-05-05T08:20:00.886Z,382.50
2018-05-05T08:21:01.040Z,388.13
2018-05-05T08:22:01.194Z,382.50
2018-05-05T08:23:01.347Z,388.13
2018-05-05T08:24:01.503Z,388.13
2018-05-05T08:25:01.660Z,388.13
2018-05-05T08:26:01.814Z,388.13
2018-05-05T08:27:01.969Z,388.13
2018-05-05T08:28:02.122Z,388.13
2018-05-05T08:29:02.341Z,388.13
2018-05-05T08:30:02.435Z,388.13
2018-05-05T08:31:02.591Z,393.75
2018-05-05T08:32:02.749Z,393.75
2018-05-05T08:33:02.897Z,393.75
2018-05-05T08:34:03.053Z,393.75
2018-05-05T08:35:03.210Z,393.75
2018-05-05T08:36:03.371Z,393.75
2018-05-05T08:37:03.531Z,393.75
2018-05-05T08:38:03.682Z,393.75
2018-05-05T08:39:03.836Z,393.75
2018-05-05T08:40:03.993Z,393.75
2018-05-05T08:41:04.150Z,393.75
2018-05-05T08:42:04.306Z,393.75
2018-05-05T08:43:04.463Z,399.38
2018-05-05T08:44:04.616Z,393.75
2018-05-05T08:45:04.772Z,399.38
2018-05-05T08:46:04.926Z,399.38
2018-05-05T08:47:05.082Z,399.38
2018-05-05T08:48:05.235Z,399.38
2018-05-05T08:49:05.391Z,399.38
2018-05-05T08:50:05.547Z,399.38
2018-05-05T08:51:05.708Z,399.38
2018-05-05T08:52:05.858Z,399.38
2018-05-05T08:53:06.015Z,399.38
2018-05-05T08:54:06.168Z,405.00
2018-05-05T08:55:06.325Z,405.00
2018-05-05T08:56:06.481Z,405.00
2018-05-05T08:57:06.636Z,405.00
2018-05-05T08:58:06.791Z,405.00
2018-05-05T08:59:06.948Z,405.00
2018-05-05T09:00:07.103Z,405.00
2018-05-05T09:01:07.259Z,405.00
2018-05-05T09:02:07.414Z,405.00
2018-05-05T09:03:07.630Z,405.00
2018-05-05T09:04:07.728Z,405.00
2018-05-05T09:05:07.883Z,410.63
2018-05-05T09:06:08.038Z,405.00
2018-05-05T09:07:08.196Z,410.63
2018-05-05T09:08:08.351Z,410.63
2018-05-05T09:09:08.506Z,410.63
2018-05-05T09:10:08.665Z,410.63
2018-05-05T09:11:08.819Z,410.63
2018-05-05T09:12:08.974Z,410.63
2018-05-05T09:13:09.133Z,410.63
2018-05-05T09:14:09.288Z,416.25
2018-05-05T09:15:09.443Z,416.25
2018-05-05T09:16:09.601Z,410.63
2018-05-05T09:17:09.756Z,416.25
2018-05-05T09:18:09.914Z,410.63
2018-05-05T09:19:10.069Z,416.25
2018-05-05T09:20:10.224Z,416.25
2018-05-05T09:21:10.381Z,416.25
2018-05-05T09:22:10.539Z,416.25
2018-05-05T09:23:10.697Z,421.88
2018-05-05T09:24:10.855Z,421.88
2018-05-05T09:25:11.013Z,421.88
2018-05-05T09:26:11.169Z,421.88
2018-05-05T09:27:11.324Z,421.88
2018-05-05T09:28:11.484Z,421.88
2018-05-05T09:29:11.639Z,421.88
2018-05-05T09:30:11.793Z,427.50
2018-05-05T09:31:11.951Z,421.88
2018-05-05T09:32:12.109Z,427.50
2018-05-05T09:33:12.264Z,427.50
2018-05-05T09:34:12.420Z,427.50
2018-05-05T09:35:12.579Z,427.50
2018-05-05T09:36:12.736Z,433.13
2018-05-05T09:37:12.894Z,433.13
2018-05-05T09:38:13.048Z,433.13
2018-05-05T09:39:13.194Z,433.13
2018-05-05T09:40:13.359Z,433.13
2018-05-05T09:41:13.519Z,433.13
2018-05-05T09:42:13.676Z,433.13
2018-05-05T09:43:13.831Z,438.75
2018-05-05T09:44:13.989Z,433.13
2018-05-05T09:45:14.148Z,438.75
2018-05-05T09:46:14.306Z,438.75
2018-05-05T09:47:14.461Z,438.75
2018-05-05T09:48:14.619Z,438.75
2018-05-05T09:49:14.804Z,444.38
2018-05-05T09:50:14.934Z,444.38
2018-05-05T09:51:15.092Z,444.38
2018-05-05T09:52:15.251Z,444.38
2018-05-05T09:53:15.408Z,444.38
2018-05-05T09:54:15.564Z,444.38
2018-05-05T09:55:15.718Z,450.00
2018-05-05T09:56:15.874Z,450.00
2018-05-05T09:57:16.033Z,450.00
2018-05-05T09:58:16.192Z,450.00
2018-05-05T09:59:16.348Z,450.00
2018-05-05T10:00:16.506Z,450.00
2018-05-05T10:01:16.663Z,450.00
2018-05-05T10:02:16.823Z,455.63
2018-05-05T10:03:16.978Z,455.63
2018-05-05T10:04:17.133Z,455.63
2018-05-05T10:05:17.293Z,455.63
2018-05-05T10:06:17.448Z,461.25
2018-05-05T10:07:17.603Z,461.25
2018-05-05T10:08:17.762Z,461.25
2018-05-05T10:09:17.918Z,461.25
2018-05-05T10:10:18.073Z,461.25
2018-05-05T10:11:18.232Z,461.25
2018-05-05T10:12:18.388Z,466.88
2018-05-05T10:13:18.544Z,461.25
2018-05-05T10:14:18.703Z,466.88
2018-05-05T10:15:18.860Z,466.88
2018-05-05T10:16:19.018Z,466.88
2018-05-05T10:17:19.173Z,466.88
2018-05-05T10:18:19.332Z,472.50
2018-05-05T10:19:19.497Z,472.50
2018-05-05T10:20:19.646Z,472.50
2018-05-05T10:21:19.804Z,472.50
2018-05-05T10:22:19.980Z,478.13
2018-05-05T10:23:20.118Z,472.50
2018-05-05T10:24:20.277Z,478.13
2018-05-05T10:25:20.436Z,478.13
2018-05-05T10:26:20.592Z,478.13
2018-05-05T10:27:20.748Z,478.13
2018-05-05T10:28:20.906Z,478.13
2018-05-05T10:29:21.067Z,478.13
2018-05-05T10:30:21.226Z,483.75
2018-05-05T10:31:21.384Z,483.75
2018-05-05T10:32:21.544Z,483.75
2018-05-05T10:33:21.700Z,483.75
2018-05-05T10:34:21.858Z,483.75
2018-05-05T10:35:22.017Z,489.38
2018-05-05T10:36:22.173Z,483.75
2018-05-05T10:37:22.331Z,489.38
2018-05-05T10:38:22.489Z,489.38
2018-05-05T10:39:22.725Z,489.38
2018-05-05T10:40:22.807Z,489.38
2018-05-05T10:41:22.963Z,495.00
2018-05-05T10:42:23.125Z,489.38
2018-05-05T10:43:23.277Z,466.88
2018-05-05T10:44:23.436Z,450.00
2018-05-05T10:45:23.596Z,461.25
2018-05-05T10:46:23.755Z,472.50
2018-05-05T10:47:23.919Z,472.50
2018-05-05T10:48:24.073Z,455.63
2018-05-05T10:49:24.232Z,461.25
2018-05-05T10:50:24.390Z,472.50
2018-05-05T10:51:24.547Z,478.13
2018-05-05T10:52:24.705Z,483.75
2018-05-05T10:53:24.862Z,478.13
2018-05-05T10:54:25.019Z,489.38
2018-05-05T10:55:25.206Z,495.00
2018-05-05T10:56:25.335Z,500.63
2018-05-05T10:57:25.491Z,495.00
2018-05-05T10:58:25.651Z,500.63
2018-05-05T10:59:25.830Z,500.63
2018-05-05T11:00:25.964Z,506.25
2018-05-05T11:01:26.137Z,500.63
2018-05-05T11:02:26.283Z,500.63
2018-05-05T11:03:26.439Z,495.00
2018-05-05T11:04:26.598Z,500.63
2018-05-05T11:05:26.757Z,500.63
2018-05-05T11:06:26.914Z,500.63
2018-05-05T11:07:27.071Z,506.25
2018-05-05T11:08:27.315Z,506.25
2018-05-05T11:09:27.384Z,495.00
2018-05-05T11:10:27.543Z,500.63
2018-05-05T11:11:27.706Z,500.63
2018-05-05T11:12:27.860Z,500.63
2018-05-05T11:13:28.016Z,500.63
2018-05-05T11:14:28.175Z,500.63
2018-05-05T11:15:28.335Z,500.63
2018-05-05T11:16:28.491Z,489.38
2018-05-05T11:17:28.654Z,495.00
2018-05-05T11:18:28.812Z,472.50
2018-05-05T11:19:28.969Z,483.75
2018-05-05T11:20:29.127Z,466.88
2018-05-05T11:21:29.285Z,489.38
2018-05-05T11:22:29.445Z,495.00
2018-05-05T11:23:29.602Z,500.63
2018-05-05T11:24:29.761Z,511.88
2018-05-05T11:25:29.923Z,506.25
2018-05-05T11:26:30.083Z,506.25
2018-05-05T11:27:30.242Z,500.63
2018-05-05T11:28:30.403Z,506.25
2018-05-05T11:29:30.568Z,506.25
2018-05-05T11:30:30.728Z,506.25
2018-05-05T11:31:30.885Z,506.25
2018-05-05T11:32:31.044Z,511.88
2018-05-05T11:33:31.202Z,517.50
2018-05-05T11:34:31.362Z,517.50
2018-05-05T11:35:31.522Z,517.50
2018-05-05T11:36:31.683Z,523.13
2018-05-05T11:37:31.840Z,523.13
2018-05-05T11:38:32.003Z,523.13
2018-05-05T11:39:32.156Z,523.13
2018-05-05T11:40:32.321Z,523.13
2018-05-05T11:41:32.474Z,523.13
2018-05-05T11:42:32.634Z,523.13
2018-05-05T11:43:32.792Z,523.13
2018-05-05T11:44:32.949Z,523.13
2018-05-05T11:45:33.107Z,534.38
2018-05-05T11:46:33.268Z,523.13
2018-05-05T11:47:33.426Z,534.38
2018-05-05T11:48:33.590Z,534.38
2018-05-05T11:49:33.742Z,540.00
2018-05-05T11:50:33.923Z,540.00
2018-05-05T11:51:34.059Z,545.63
2018-05-05T11:52:34.227Z,545.63
2018-05-05T11:53:34.380Z,540.00
2018-05-05T11:54:34.543Z,545.63
2018-05-05T11:55:34.701Z,545.63
2018-05-05T11:56:34.862Z,545.63
2018-05-05T11:57:35.017Z,545.63
2018-05-05T11:58:35.177Z,551.25
2018-05-05T11:59:35.337Z,545.63
2018-05-05T12:00:35.495Z,551.25
2018-05-05T12:01:35.707Z,540.00
2018-05-05T12:02:35.820Z,540.00
2018-05-05T12:03:35.969Z,540.00
2018-05-05T12:04:36.127Z,540.00
2018-05-05T12:05:36.287Z,545.63
2018-05-05T12:06:36.449Z,540.00
2018-05-05T12:07:36.605Z,545.63
2018-05-05T12:08:36.767Z,545.63
2018-05-05T12:09:36.957Z,545.63
2018-05-05T12:10:37.090Z,545.63
2018-05-05T12:11:37.244Z,545.63
2018-05-05T12:12:37.405Z,545.63
2018-05-05T12:13:37.565Z,545.63
2018-05-05T12:14:37.724Z,545.63
2018-05-05T12:15:37.883Z,545.63
2018-05-05T12:16:38.043Z,545.63
2018-05-05T12:17:38.201Z,551.25
2018-05-05T12:18:38.361Z,545.63
2018-05-05T12:19:38.521Z,545.63
2018-05-05T12:20:38.683Z,545.63
2018-05-05T12:21:38.842Z,545.63
2018-05-05T12:22:39.007Z,545.63
2018-05-05T12:23:39.167Z,545.63
2018-05-05T12:24:39.322Z,545.63
2018-05-05T12:25:39.485Z,545.63
2018-05-05T12:26:39.642Z,545.63
2018-05-05T12:27:39.801Z,545.63
2018-05-05T12:28:39.962Z,545.63
2018-05-05T12:29:40.214Z,545.63
2018-05-05T12:30:40.286Z,551.25
2018-05-05T12:31:40.449Z,551.25
2018-05-05T12:32:40.607Z,551.25
2018-05-05T12:33:40.764Z,551.25
2018-05-05T12:34:40.928Z,551.25
2018-05-05T12:35:41.084Z,556.88
2018-05-05T12:36:41.236Z,556.88
2018-05-05T12:37:41.395Z,556.88
2018-05-05T12:38:41.553Z,556.88
2018-05-05T12:39:41.716Z,556.88
2018-05-05T12:40:41.874Z,562.50
2018-05-05T12:41:42.038Z,568.13
2018-05-05T12:42:42.193Z,568.13
2018-05-05T12:43:42.351Z,573.75
2018-05-05T12:44:42.516Z,579.38
2018-05-05T12:45:42.673Z,579.38